createdAt,value
2023-02-22T01:35:41.761Z,123.04
2023-02-22T01:41:41.787Z,125.29
2023-02-22T01:42:41.804Z,124.80
2023-02-22T01:43:41.820Z,123.48
2023-02-22T01:44:41.844Z,123.35
2023-02-22T01:45:41.929Z,123.89
2023-02-22T01:46:41.927Z,122.84
2023-02-22T01:47:41.995Z,123.37
2023-02-22T01:48:42.031Z,119.94
2023-02-22T01:49:42.077Z,123.65
2023-02-22T01:50:42.145Z,121.52
2023-02-22T01:51:42.138Z,120.78
2023-02-22T01:52:42.190Z,121.40
2023-02-22T01:53:42.213Z,122.77
2023-02-22T01:54:42.248Z,118.49
2023-02-22T01:55:42.310Z,119.37
2023-02-22T01:56:42.364Z,120.19
2023-02-22T01:57:42.502Z,121.02
2023-02-22T01:58:42.429Z,121.15
2023-02-22T01:59:42.451Z,118.92
2023-02-22T02:00:42.477Z,118.42
2023-02-22T02:01:42.500Z,120.15
2023-02-22T02:02:42.550Z,116.90
2023-02-22T02:03:42.641Z,115.45
2023-02-22T02:04:42.674Z,116.71
2023-02-22T02:05:42.620Z,115.75
2023-02-22T02:06:42.614Z,116.80
2023-02-22T02:07:42.653Z,116.09
2023-02-22T02:08:42.673Z,116.07
2023-02-22T02:09:42.670Z,115.61
2023-02-22T02:10:42.698Z,115.92
2023-02-22T02:11:42.714Z,113.37
2023-02-22T02:12:42.744Z,113.80
2023-02-22T02:13:42.783Z,113.37
2023-02-22T02:14:42.902Z,114.05
2023-02-22T02:15:42.861Z,109.95
2023-02-22T02:16:43.850Z,111.95
2023-02-22T02:17:43.047Z,112.11
2023-02-22T02:18:43.033Z,112.11
2023-02-22T02:19:43.067Z,107.92
2023-02-22T02:20:43.102Z,111.49
2023-02-22T02:21:43.130Z,110.61
2023-02-22T02:22:43.179Z,109.86
2023-02-22T02:23:43.228Z,109.22
2023-02-22T02:24:43.293Z,107.25
2023-02-22T02:25:43.344Z,107.73
2023-02-22T02:26:43.401Z,108.81
2023-02-22T02:27:43.446Z,107.68
2023-02-22T02:28:43.503Z,107.96
2023-02-22T02:29:43.547Z,109.44
2023-02-22T02:30:43.599Z,106.20
2023-02-22T02:31:43.720Z,107.58
2023-02-22T02:32:43.774Z,106.55
2023-02-22T02:33:43.772Z,106.22
2023-02-22T02:34:43.821Z,107.01
2023-02-22T02:35:43.863Z,103.63
2023-02-22T02:36:43.935Z,104.92
2023-02-22T02:37:43.959Z,106.65
2023-02-22T02:38:44.099Z,106.73
2023-02-22T02:39:44.064Z,104.78
2023-02-22T02:40:44.123Z,103.70
2023-02-22T02:41:44.144Z,104.71
2023-02-22T02:42:44.196Z,104.58
2023-02-22T02:43:44.238Z,104.54
2023-02-22T02:44:44.279Z,101.78
2023-02-22T02:45:44.339Z,104.55
2023-02-22T02:46:44.372Z,102.59
2023-02-22T02:47:44.410Z,103.03
2023-02-22T02:48:44.459Z,102.96
2023-02-22T02:49:44.494Z,100.76
2023-02-22T02:50:44.538Z,101.47
2023-02-22T02:51:44.591Z,103.05
2023-02-22T02:52:44.626Z,101.91
2023-02-22T02:53:44.670Z,101.51
2023-02-22T02:54:44.710Z,100.25
2023-02-22T02:55:44.759Z,98.34
2023-02-22T02:56:44.804Z,100.65
2023-02-22T02:57:44.857Z,99.37
2023-02-22T02:58:44.889Z,98.37
2023-02-22T02:59:44.927Z,100.44
2023-02-22T03:00:44.965Z,99.16
2023-02-22T03:01:45.065Z,97.34
2023-02-22T03:02:45.064Z,96.22
2023-02-22T03:03:45.204Z,96.53
2023-02-22T03:04:45.160Z,97.28
2023-02-22T03:05:45.197Z,95.04
2023-02-22T03:06:45.236Z,91.94
2023-02-22T03:07:45.414Z,94.01
2023-02-22T03:08:45.357Z,94.61
2023-02-22T03:09:45.374Z,92.67
2023-02-22T03:10:45.416Z,93.66
2023-02-22T03:11:45.515Z,91.60
2023-02-22T03:12:45.497Z,92.27
2023-02-22T03:13:45.548Z,93.40
2023-02-22T03:14:45.589Z,92.38
2023-02-22T03:15:45.771Z,93.12
2023-02-22T03:16:45.738Z,91.43
2023-02-22T03:17:45.733Z,89.91
2023-02-22T03:18:45.777Z,91.61
2023-02-22T03:19:45.832Z,89.56
2023-02-22T03:20:45.866Z,88.84
2023-02-22T03:21:45.930Z,89.94
2023-02-22T03:22:45.972Z,88.98
2023-02-22T03:23:46.004Z,87.13
2023-02-22T03:24:46.056Z,88.41
2023-02-22T03:25:46.104Z,88.37
2023-02-22T03:26:46.154Z,84.67
2023-02-22T03:27:46.196Z,87.96
2023-02-22T03:28:46.242Z,86.50
2023-02-22T03:29:46.392Z,84.96
2023-02-22T03:30:46.411Z,87.04
2023-02-22T03:31:46.394Z,86.03
2023-02-22T03:32:46.451Z,86.12
2023-02-22T03:33:46.492Z,87.09
2023-02-22T03:34:46.599Z,86.33
2023-02-22T03:35:46.581Z,84.96
2023-02-22T03:36:46.624Z,81.43
2023-02-22T03:37:46.679Z,85.77
2023-02-22T03:38:46.723Z,82.59
2023-02-22T03:39:46.789Z,84.19
2023-02-22T05:17:51.842Z,60.26
2023-02-22T05:25:51.747Z,57.54
2023-02-22T05:26:51.761Z,57.53
2023-02-22T05:27:51.752Z,57.39
2023-02-22T05:28:51.755Z,57.18
2023-02-22T05:29:51.762Z,56.02
2023-02-22T05:30:51.764Z,56.59
2023-02-22T05:31:51.821Z,56.03
2023-02-22T05:32:51.824Z,56.88
2023-02-22T05:33:51.845Z,56.24
2023-02-22T05:34:51.877Z,55.70
2023-02-22T05:35:51.923Z,55.62
2023-02-22T05:36:51.947Z,55.65
2023-02-22T05:37:51.986Z,54.65
2023-02-22T05:38:52.027Z,54.33
2023-02-22T05:39:52.067Z,55.43
2023-02-22T05:40:52.235Z,54.30
2023-02-22T05:41:52.127Z,53.64
2023-02-22T05:42:52.160Z,54.40
2023-02-22T05:43:52.206Z,54.37
2023-02-22T05:44:52.255Z,52.97
2023-02-22T05:45:52.250Z,53.04
2023-02-22T05:46:52.326Z,53.30
2023-02-22T05:47:52.282Z,52.66
2023-02-22T05:48:52.314Z,52.67
2023-02-22T05:49:52.341Z,51.14
2023-02-22T05:50:52.853Z,52.80
2023-02-22T05:51:52.356Z,50.31
2023-02-22T05:52:52.369Z,52.32
2023-02-22T05:53:52.374Z,53.07
2023-02-22T05:54:52.429Z,50.72
2023-02-22T05:55:52.462Z,52.36
2023-02-22T05:56:52.485Z,51.24
2023-02-22T05:57:52.504Z,50.85
2023-02-22T05:58:52.506Z,50.62
2023-02-22T05:59:52.547Z,51.55
2023-02-22T06:00:52.560Z,50.33
2023-02-22T06:01:52.631Z,50.67
2023-02-22T06:02:52.627Z,49.38
2023-02-22T06:03:52.644Z,48.62
2023-02-22T06:04:52.637Z,48.08
2023-02-22T06:05:53.364Z,47.37
2023-02-22T06:06:52.702Z,48.06
2023-02-22T06:07:52.772Z,47.00
2023-02-22T06:08:52.731Z,46.12
2023-02-22T06:09:52.776Z,46.82
2023-02-22T06:10:52.824Z,47.47
2023-02-22T06:11:54.475Z,47.23
2023-02-22T06:12:52.883Z,46.66
2023-02-22T06:13:52.886Z,47.05
2023-02-22T06:14:52.902Z,45.92
2023-02-22T06:15:52.973Z,45.88
2023-02-22T06:16:52.931Z,47.29
2023-02-22T06:17:52.968Z,45.11
2023-02-22T06:18:52.952Z,44.95
2023-02-22T06:19:52.988Z,46.09
2023-02-22T06:20:53.004Z,45.89
2023-02-22T06:21:53.020Z,47.76
2023-02-22T06:22:53.039Z,48.33
2023-02-22T06:23:53.042Z,51.40
2023-02-22T06:24:54.981Z,55.29
2023-02-22T06:25:53.062Z,58.70
2023-02-22T06:26:53.081Z,69.08
2023-02-22T06:27:53.083Z,78.17
2023-02-22T06:28:53.103Z,94.77
2023-02-22T06:29:53.087Z,95.67
2023-02-22T06:30:53.786Z,103.82
2023-02-22T06:31:53.195Z,114.03
2023-02-22T06:54:53.545Z,247.66
2023-02-22T06:59:53.503Z,248.99
2023-02-22T07:00:53.481Z,251.03
2023-02-22T07:01:53.446Z,249.00
2023-02-22T07:02:53.429Z,249.27
2023-02-22T07:03:53.409Z,250.00
2023-02-22T07:04:53.388Z,249.43
2023-02-22T07:05:53.365Z,248.61
2023-02-22T07:06:53.346Z,250.00
2023-02-22T07:07:53.320Z,248.72
2023-02-22T07:08:53.396Z,254.26
2023-02-22T07:09:53.305Z,252.74
2023-02-22T07:10:53.257Z,246.47
2023-02-22T07:11:53.239Z,245.02
2023-02-22T07:12:53.328Z,248.01
2023-02-22T07:13:53.197Z,249.44
2023-02-22T07:14:53.183Z,249.47
2023-02-22T07:15:53.175Z,248.59
2023-02-22T07:16:53.138Z,250.00
2023-02-22T07:17:53.116Z,249.69
2023-02-22T07:18:53.102Z,249.82
2023-02-22T07:19:53.086Z,250.00
2023-02-22T07:20:53.068Z,250.00
2023-02-22T07:21:53.050Z,249.30
2023-02-22T07:22:53.037Z,243.94
2023-02-22T07:23:53.885Z,224.27
2023-02-22T07:24:53.063Z,183.00
2023-02-22T07:25:53.129Z,177.00
2023-02-22T07:26:53.164Z,199.91
2023-02-22T07:27:53.222Z,198.76
2023-02-22T07:28:53.278Z,193.88
2023-02-22T07:29:53.324Z,190.16
2023-02-22T07:30:53.382Z,194.76
2023-02-22T07:31:53.451Z,196.48
2023-02-22T07:32:53.545Z,196.20
2023-02-22T07:33:53.571Z,195.26
2023-02-22T07:34:53.521Z,197.66
2023-02-22T07:35:53.542Z,200.33
2023-02-22T07:36:54.393Z,200.98
2023-02-22T07:37:55.880Z,202.83
2023-02-22T07:38:53.633Z,204.70
2023-02-22T07:39:53.642Z,207.51
2023-02-22T07:40:53.628Z,207.11
2023-02-22T07:41:53.648Z,213.15
2023-02-22T07:42:53.636Z,214.66
2023-02-22T07:43:53.633Z,215.07
2023-02-22T07:44:53.618Z,217.85
2023-02-22T07:45:53.651Z,220.50
2023-02-22T07:46:53.581Z,222.68
2023-02-22T07:47:53.578Z,224.31
2023-02-22T07:48:53.555Z,228.97
2023-02-22T07:49:53.624Z,229.27
2023-02-22T07:50:53.554Z,228.76
2023-02-22T07:51:53.577Z,233.62
2023-02-22T07:52:53.502Z,234.26
2023-02-22T07:53:53.480Z,234.73
2023-02-22T07:55:53.450Z,240.64
2023-02-22T07:56:53.468Z,246.06
2023-02-22T07:57:54.326Z,247.02
2023-02-22T07:58:53.331Z,249.64
2023-02-22T07:59:53.323Z,249.65
2023-02-22T08:00:53.269Z,249.55
2023-02-22T08:01:53.234Z,249.07
2023-02-22T08:02:53.209Z,250.00
2023-02-22T08:03:53.281Z,249.42
2023-02-22T08:04:53.152Z,249.53
2023-02-22T08:05:53.113Z,247.66
2023-02-22T08:06:53.089Z,249.59
2023-02-22T08:07:53.059Z,249.76
2023-02-22T08:08:53.029Z,249.93
2023-02-22T08:09:52.997Z,249.49
2023-02-22T08:10:52.988Z,249.19
2023-02-22T08:11:52.945Z,249.19
2023-02-22T08:12:52.931Z,250.00
2023-02-22T08:13:52.898Z,248.27
2023-02-22T08:14:52.886Z,250.00
2023-02-22T08:15:52.851Z,247.35
2023-02-22T08:16:52.843Z,246.52
2023-02-22T08:17:52.793Z,245.00
2023-02-22T08:18:52.772Z,243.91
2023-02-22T08:19:53.371Z,241.82
2023-02-22T08:20:52.735Z,241.44
2023-02-22T08:21:53.336Z,241.65
2023-02-22T08:22:52.673Z,241.13
2023-02-22T08:23:52.644Z,242.25
2023-02-22T08:24:52.620Z,240.88
2023-02-22T08:25:52.610Z,241.39
2023-02-22T08:26:52.607Z,239.83
2023-02-22T08:27:52.556Z,240.03
2023-02-22T08:28:52.521Z,239.74
2023-02-22T08:29:52.510Z,239.19
2023-02-22T08:30:52.564Z,239.53
2023-02-22T08:31:52.558Z,238.37
2023-02-22T08:32:52.501Z,237.86
2023-02-22T08:33:52.425Z,238.40
2023-02-22T08:34:52.396Z,238.89
2023-02-22T08:35:52.465Z,234.32
2023-02-22T08:36:52.920Z,236.54
2023-02-22T08:37:52.347Z,235.49
2023-02-22T08:38:52.290Z,234.59
2023-02-22T08:39:52.273Z,234.63
2023-02-22T08:40:52.262Z,234.47
2023-02-22T08:41:52.287Z,233.60
2023-02-22T08:42:52.206Z,233.76
2023-02-22T08:43:52.189Z,232.47
2023-02-22T08:44:52.162Z,231.98
2023-02-22T08:45:52.494Z,231.29
2023-02-22T08:46:52.170Z,230.53
2023-02-22T08:47:52.087Z,230.88
2023-02-22T08:48:52.073Z,230.49
2023-02-22T08:49:52.047Z,228.77
2023-02-22T08:50:52.044Z,228.74
2023-02-22T08:51:52.001Z,228.97
2023-02-22T08:52:51.980Z,229.47
2023-02-22T08:53:51.948Z,228.01
2023-02-22T08:54:51.949Z,227.46
2023-02-22T08:55:52.064Z,227.12
2023-02-22T08:56:52.009Z,225.19
2023-02-22T08:57:52.020Z,224.22
2023-02-22T08:58:52.043Z,223.44
2023-02-22T08:59:52.058Z,221.65
2023-02-22T09:00:52.083Z,222.54
2023-02-22T09:01:52.112Z,222.57
2023-02-22T09:02:52.158Z,220.64
2023-02-22T09:03:52.173Z,222.45
2023-02-22T09:04:52.168Z,219.39
2023-02-22T09:05:52.224Z,219.66
2023-02-22T09:06:52.950Z,220.36
2023-02-22T09:07:54.929Z,218.35
2023-02-22T09:08:52.197Z,218.63
2023-02-22T09:09:52.160Z,218.42
2023-02-22T09:10:52.147Z,217.41
2023-02-22T09:11:53.165Z,216.35
2023-02-22T09:12:52.098Z,217.66
2023-02-22T09:13:52.071Z,214.98
2023-02-22T09:14:52.041Z,215.74
2023-02-22T09:15:52.014Z,214.44
2023-02-22T09:16:53.061Z,214.51
2023-02-22T09:17:55.488Z,213.85
2023-02-22T09:18:51.943Z,213.29
2023-02-22T09:19:51.918Z,211.50
2023-02-22T09:20:51.899Z,210.72
2023-02-22T09:21:51.855Z,210.63
2023-02-22T09:22:51.848Z,208.79
2023-02-22T09:23:51.807Z,206.65
2023-02-22T09:24:51.997Z,205.30
2023-02-22T09:25:51.771Z,205.38
2023-02-22T09:26:51.756Z,201.75
2023-02-22T09:27:51.716Z,203.00
2023-02-22T09:28:51.731Z,202.91
2023-02-22T09:29:52.438Z,204.83
2023-02-22T09:30:51.641Z,202.62
2023-02-22T09:31:51.721Z,201.78
2023-02-22T09:32:51.729Z,202.58
2023-02-22T09:33:51.564Z,201.65
2023-02-22T09:34:51.535Z,199.55
2023-02-22T09:35:51.538Z,199.34
2023-02-22T09:36:51.485Z,197.67
2023-02-22T09:37:51.481Z,197.80
2023-02-22T09:38:51.450Z,197.93
2023-02-22T09:39:51.460Z,197.96
2023-02-22T09:40:51.431Z,194.53
2023-02-22T09:41:51.408Z,194.10
2023-02-22T09:42:51.373Z,194.86
2023-02-22T09:43:51.353Z,194.01
2023-02-22T09:44:51.345Z,193.32
2023-02-22T09:45:51.381Z,192.69
2023-02-22T09:46:51.292Z,192.76
2023-02-22T09:47:51.346Z,190.56
2023-02-22T09:48:51.298Z,192.34
2023-02-22T09:49:51.248Z,192.02
2023-02-22T09:50:51.241Z,190.03
2023-02-22T09:51:51.200Z,189.40
2023-02-22T09:52:51.181Z,186.68
2023-02-22T09:53:51.161Z,188.20
2023-02-22T09:54:51.146Z,186.80
2023-02-22T09:55:51.128Z,186.64
2023-02-22T09:56:51.105Z,186.14
2023-02-22T09:57:51.086Z,185.80
2023-02-22T09:58:51.043Z,185.70
2023-02-22T09:59:51.017Z,184.18
2023-02-22T10:00:50.985Z,186.22
2023-02-22T10:01:50.970Z,184.10
2023-02-22T10:02:50.994Z,184.93
2023-02-22T10:03:51.033Z,184.16
2023-02-22T10:04:50.905Z,184.00
2023-02-22T10:05:50.887Z,184.28
2023-02-22T10:06:50.958Z,182.47
2023-02-22T10:07:50.839Z,180.28
2023-02-22T10:08:50.810Z,180.27
2023-02-22T10:09:50.801Z,179.47
2023-02-22T10:10:50.760Z,180.97
2023-02-22T10:11:50.728Z,179.99
2023-02-22T10:12:50.707Z,177.35
2023-02-22T10:13:50.659Z,177.38
2023-02-22T10:14:50.634Z,177.51
2023-02-22T10:15:50.619Z,177.46
2023-02-22T10:16:50.584Z,176.84
2023-02-22T10:17:50.547Z,176.71
2023-02-22T10:18:50.529Z,178.54
2023-02-22T10:19:50.559Z,176.60
2023-02-22T10:20:50.464Z,175.83
2023-02-22T10:21:50.447Z,174.94
2023-02-22T10:22:50.480Z,173.78
2023-02-22T10:23:51.005Z,173.30
2023-02-22T10:24:50.343Z,175.77
2023-02-22T10:25:50.957Z,174.32
2023-02-22T10:26:50.306Z,173.31
2023-02-22T10:27:50.258Z,173.62
2023-02-22T10:28:50.236Z,171.47
2023-02-22T10:29:50.208Z,173.85
2023-02-22T10:30:50.236Z,171.14
2023-02-22T10:31:50.315Z,169.66
2023-02-22T10:32:50.162Z,170.28
2023-02-22T10:33:50.140Z,168.52
2023-02-22T10:34:50.124Z,167.44
2023-02-22T10:35:50.093Z,167.27
2023-02-22T10:36:50.079Z,166.10
2023-02-22T10:37:50.096Z,166.68
2023-02-22T10:38:50.015Z,166.60
2023-02-22T10:39:50.046Z,166.68
2023-02-22T10:40:49.960Z,167.39
2023-02-22T10:41:49.923Z,167.44
2023-02-22T10:42:50.473Z,166.11
2023-02-22T10:43:49.936Z,165.01
2023-02-22T10:44:49.844Z,164.37
2023-02-22T10:45:49.870Z,163.57
2023-02-22T10:46:49.825Z,163.68
2023-02-22T10:47:49.828Z,162.39
2023-02-22T10:48:49.824Z,163.23
2023-02-22T10:49:49.820Z,161.81
2023-02-22T10:50:49.815Z,162.84
2023-02-22T10:51:49.817Z,161.76
2023-02-22T10:52:49.804Z,162.36
2023-02-22T10:53:50.485Z,161.63
2023-02-22T10:54:49.810Z,161.20
2023-02-22T10:55:49.762Z,160.80
2023-02-22T10:56:49.735Z,161.61
2023-02-22T10:57:49.705Z,161.58
2023-02-22T10:58:49.705Z,162.28
2023-02-22T10:59:49.673Z,160.94
2023-02-22T11:00:49.677Z,161.75
2023-02-22T11:01:49.676Z,159.53
2023-02-22T11:02:49.608Z,161.15
2023-02-22T11:03:49.575Z,161.21
2023-02-22T11:04:49.740Z,161.21
2023-02-22T11:05:49.542Z,158.01
2023-02-22T11:07:49.507Z,159.98
2023-02-22T11:08:49.473Z,158.20
2023-02-22T11:09:49.441Z,159.99
2023-02-22T11:10:49.449Z,157.87
2023-02-22T11:11:49.386Z,158.62
2023-02-22T11:12:49.357Z,157.57
2023-02-22T11:13:49.326Z,157.16
2023-02-22T11:14:49.280Z,154.48
2023-02-22T11:15:49.272Z,154.78
2023-02-22T11:16:49.270Z,154.53
2023-02-22T11:17:49.277Z,153.40
2023-02-22T11:18:49.316Z,152.49
2023-02-22T11:19:49.305Z,153.67
2023-02-22T11:21:49.290Z,152.22
2023-02-22T11:22:49.337Z,150.91
2023-02-22T11:23:49.324Z,149.16
2023-02-22T11:24:49.584Z,151.11
2023-02-22T11:25:49.367Z,150.17
2023-02-22T11:26:49.403Z,147.78
2023-02-22T11:27:49.399Z,148.23
2023-02-22T11:28:49.646Z,148.82
2023-02-22T11:29:49.531Z,147.70
2023-02-22T11:30:49.573Z,147.76
2023-02-22T11:31:49.658Z,148.13
2023-02-22T11:32:49.597Z,147.50
2023-02-22T11:34:52.805Z,147.01
2023-02-22T11:36:49.449Z,147.36
2023-02-22T11:37:49.402Z,147.15
2023-02-22T11:38:49.382Z,148.14
2023-02-22T11:39:49.326Z,146.66
2023-02-22T11:40:49.284Z,146.50
2023-02-22T11:41:49.257Z,147.85
2023-02-22T11:42:49.214Z,146.54
2023-02-22T11:43:49.179Z,146.66
2023-02-22T11:44:49.161Z,145.56
2023-02-22T11:45:57.823Z,147.07
2023-02-22T11:47:49.099Z,147.18
2023-02-22T11:53:48.800Z,143.73
2023-02-22T11:54:48.783Z,143.54
2023-02-22T11:55:48.801Z,142.87
2023-02-22T11:56:48.828Z,143.78
2023-02-22T11:58:48.861Z,141.01
2023-02-22T12:01:48.880Z,139.92
2023-02-22T12:03:49.061Z,137.66
2023-02-22T12:06:48.867Z,137.56
2023-02-22T12:07:48.860Z,136.35
2023-02-22T12:09:48.825Z,134.68
2023-02-22T12:10:48.807Z,134.15
2023-02-22T12:11:48.782Z,133.67
2023-02-22T12:12:48.768Z,133.84
2023-02-22T12:13:48.807Z,134.13
2023-02-22T12:14:48.705Z,136.07
2023-02-22T12:16:48.681Z,134.26
2023-02-22T12:17:59.328Z,132.61
2023-02-22T12:19:48.437Z,133.43
2023-02-22T12:20:48.374Z,133.94
2023-02-22T12:21:48.332Z,134.61
2023-02-22T12:22:48.280Z,133.08
2023-02-22T12:23:48.218Z,131.88
2023-02-22T12:24:50.049Z,132.57
2023-02-22T12:25:48.132Z,132.25
2023-02-22T12:26:48.084Z,132.01
2023-02-22T12:27:48.020Z,131.66
2023-02-22T12:28:48.032Z,131.58
2023-02-22T12:29:47.926Z,131.74
2023-02-22T12:30:48.005Z,130.85
2023-02-22T12:31:47.927Z,130.01
2023-02-22T12:32:47.832Z,128.55
2023-02-22T12:33:47.736Z,129.64
2023-02-22T12:40:47.289Z,127.14
2023-02-22T13:47:46.517Z,118.43
2023-02-22T13:48:46.588Z,118.53
2023-02-22T13:49:46.475Z,117.71
2023-02-22T13:50:46.451Z,118.83
2023-02-22T13:52:46.400Z,118.70
2023-02-22T13:53:46.394Z,118.45
2023-02-22T13:54:46.344Z,118.22
2023-02-22T13:55:46.326Z,117.55
2023-02-22T13:56:46.297Z,118.42
2023-02-22T13:57:46.280Z,119.26
2023-02-22T13:59:46.217Z,116.34
2023-02-22T14:01:46.206Z,117.96
2023-02-22T14:17:46.058Z,118.36
2023-02-22T14:18:46.184Z,116.53
2023-02-22T14:19:45.892Z,118.94
2023-02-22T14:20:46.152Z,118.19
2023-02-22T14:21:45.934Z,116.84
2023-02-22T14:22:47.998Z,117.91
2023-02-22T14:23:45.870Z,117.39
2023-02-22T14:24:45.894Z,117.98
2023-02-22T14:25:45.873Z,118.37
2023-02-22T14:26:45.871Z,118.63
2023-02-22T14:27:45.854Z,116.32
2023-02-22T14:28:45.851Z,117.08
2023-02-22T14:29:45.865Z,117.41
2023-02-22T14:30:45.856Z,116.07
2023-02-22T14:31:45.970Z,117.25
2023-02-22T14:32:46.004Z,115.63
2023-02-22T14:33:45.897Z,117.05
2023-02-22T14:34:45.968Z,116.34
2023-02-22T14:35:50.095Z,117.93
2023-02-22T14:36:45.817Z,118.01
2023-02-22T14:37:45.755Z,117.96
2023-02-22T14:38:45.700Z,118.09
2023-02-22T14:39:45.634Z,117.75
2023-02-22T14:40:45.582Z,118.69
2023-02-22T14:41:45.519Z,117.42
2023-02-22T14:42:45.499Z,116.45
2023-02-22T14:43:45.503Z,117.99
2023-02-22T14:44:45.352Z,115.86
2023-02-22T14:45:45.339Z,118.16
2023-02-22T14:46:45.244Z,118.02
2023-02-22T14:47:46.423Z,117.88
2023-02-22T14:48:45.137Z,118.06
2023-02-22T14:49:45.144Z,116.84
2023-02-22T14:50:45.034Z,119.26
2023-02-22T14:51:45.557Z,117.52
2023-02-22T14:52:45.054Z,116.85
2023-02-22T14:53:45.027Z,117.66
2023-02-22T14:54:45.000Z,118.01
2023-02-22T14:55:44.936Z,117.67
2023-02-22T14:56:44.916Z,117.98
2023-02-22T14:57:44.917Z,117.82
2023-02-22T14:58:44.860Z,116.33
2023-02-22T14:59:44.812Z,116.02
2023-02-22T15:00:44.772Z,117.47
2023-02-22T15:01:55.371Z,117.08
2023-02-22T15:02:45.708Z,117.16
2023-02-22T15:03:45.519Z,117.40
2023-02-22T15:04:44.592Z,116.60
2023-02-22T15:05:44.518Z,116.68
2023-02-22T15:06:44.467Z,118.33
2023-02-22T15:07:44.571Z,115.18
2023-02-22T15:08:44.380Z,117.28
2023-02-22T15:09:44.345Z,115.28
2023-02-22T15:10:44.296Z,117.03
2023-02-22T15:11:44.245Z,118.42
2023-02-22T15:12:44.200Z,117.86
2023-02-22T15:13:44.143Z,115.32
2023-02-22T15:14:44.178Z,117.95
2023-02-22T15:15:44.064Z,117.33
2023-02-22T15:16:44.015Z,116.59
2023-02-22T15:17:43.961Z,117.02
2023-02-22T15:18:43.934Z,117.13
2023-02-22T15:19:43.867Z,118.12
2023-02-22T15:20:43.841Z,114.55
2023-02-22T15:21:43.811Z,115.30
2023-02-22T15:22:43.754Z,117.78
2023-02-22T15:23:43.709Z,115.40
2023-02-22T15:24:43.665Z,117.11
2023-02-22T15:25:43.717Z,116.85
2023-02-22T15:26:55.570Z,118.06
2023-02-22T15:27:44.549Z,118.19
2023-02-22T15:28:43.502Z,118.18
2023-02-22T15:29:43.458Z,116.71
2023-02-22T15:30:43.471Z,115.70
2023-02-22T15:31:45.725Z,118.10
2023-02-22T15:33:01.241Z,120.31
2023-02-22T15:33:44.296Z,120.47
2023-02-22T15:34:43.255Z,120.58
2023-02-22T15:35:43.204Z,118.36
2023-02-22T15:36:43.170Z,119.54
2023-02-22T15:37:43.135Z,119.37
2023-02-22T16:08:54.475Z,118.65
2023-02-22T16:09:44.086Z,118.75
2023-02-22T16:11:43.101Z,118.70
2023-02-22T16:12:43.153Z,119.67
2023-02-22T16:13:43.139Z,117.39
2023-02-22T16:14:43.173Z,118.18
2023-02-22T16:15:43.197Z,117.04
2023-02-22T16:16:43.342Z,117.01
2023-02-22T16:17:55.968Z,115.70
2023-02-22T16:19:43.165Z,116.32
2023-02-22T16:20:43.126Z,116.39
2023-02-22T16:21:43.134Z,116.42
2023-02-22T16:22:43.135Z,117.29
2023-02-22T16:38:43.114Z,118.08
2023-02-22T16:48:43.113Z,117.14
2023-02-22T16:50:43.115Z,114.70
2023-02-22T16:51:43.122Z,116.89
2023-02-22T18:46:43.219Z,109.40
2023-02-22T18:59:43.137Z,102.93
2023-02-22T19:00:43.141Z,105.22
2023-02-22T19:01:43.203Z,107.70
2023-02-22T19:02:43.275Z,104.67
2023-02-22T19:03:43.250Z,104.88
2023-02-22T19:04:43.275Z,103.35
2023-02-22T19:05:43.303Z,102.87
2023-02-22T19:06:43.340Z,104.00
2023-02-22T19:07:43.364Z,107.82
2023-02-22T19:08:43.424Z,105.69
2023-02-22T19:09:43.434Z,104.14
2023-02-22T19:10:43.460Z,104.27
2023-02-22T19:11:43.493Z,101.43
2023-02-22T19:12:43.511Z,103.58
2023-02-22T19:13:43.542Z,102.75
2023-02-22T19:14:43.569Z,102.78
2023-02-22T19:15:43.665Z,101.96
2023-02-22T19:16:43.636Z,102.44
2023-02-22T19:17:43.671Z,103.61
2023-02-22T19:18:43.710Z,104.14
2023-02-22T19:19:43.744Z,102.68
2023-02-22T19:20:43.773Z,101.32
2023-02-22T19:21:43.797Z,102.65
2023-02-22T19:22:43.838Z,101.98
2023-02-22T19:23:44.185Z,102.49
2023-02-22T19:24:43.907Z,101.46
2023-02-22T19:25:43.939Z,100.73
2023-02-22T19:26:43.976Z,102.66
2023-02-22T19:27:43.989Z,102.13
2023-02-22T19:28:44.045Z,101.06
2023-02-22T19:29:44.066Z,102.42
2023-02-22T19:30:44.142Z,102.74
2023-02-22T19:31:44.196Z,101.82
2023-02-22T19:32:44.223Z,102.31
2023-02-22T19:33:44.213Z,101.10
2023-02-22T19:34:44.262Z,101.48
2023-02-22T19:35:44.275Z,101.14
2023-02-22T19:36:44.321Z,98.95
2023-02-22T19:37:44.345Z,99.87
2023-02-22T19:38:44.463Z,98.41
2023-02-22T19:39:44.431Z,99.16
2023-02-22T19:40:44.474Z,99.21
2023-02-22T19:41:44.494Z,99.71
2023-02-22T19:55:45.057Z,100.23
2023-02-22T19:56:45.095Z,98.33
2023-02-22T19:57:45.141Z,97.51
2023-02-22T19:58:45.182Z,98.54
2023-02-22T20:00:45.270Z,97.59
2023-02-22T20:01:45.312Z,95.97
2023-02-22T20:02:45.340Z,97.77
2023-02-22T20:03:45.497Z,99.32
2023-02-22T20:04:45.454Z,97.42
2023-02-22T20:05:45.453Z,98.17
2023-02-22T20:06:45.490Z,97.44
2023-02-22T20:07:45.539Z,97.61
2023-02-22T20:08:45.577Z,99.12
2023-02-22T20:09:45.625Z,97.52
2023-02-22T20:10:45.664Z,95.38
2023-02-22T20:11:45.699Z,97.40
2023-02-22T20:12:45.759Z,97.08
2023-02-22T20:13:45.795Z,97.71
2023-02-22T20:14:45.827Z,97.41
2023-02-22T20:15:45.879Z,95.84
2023-02-22T20:16:45.939Z,95.60
2023-02-22T20:17:45.975Z,95.41
2023-02-22T20:18:46.005Z,96.72
2023-02-22T20:19:46.046Z,96.25
2023-02-22T20:20:46.099Z,96.61
2023-02-22T20:21:46.130Z,95.67
2023-02-22T20:42:47.017Z,92.80
2023-02-22T20:43:47.052Z,94.95
2023-02-22T20:44:47.104Z,92.37
2023-02-22T20:45:47.216Z,91.51
2023-02-22T22:24:50.574Z,70.98
2023-02-22T22:25:50.618Z,68.50
2023-02-22T22:26:50.737Z,70.82
2023-02-22T22:27:50.720Z,70.01
2023-02-22T22:28:50.772Z,70.38
2023-02-22T22:30:51.017Z,69.58
2023-02-22T22:31:51.030Z,69.99
2023-02-22T22:32:50.942Z,66.75
2023-02-22T22:33:51.000Z,67.19
2023-02-22T22:34:51.041Z,68.35
2023-02-22T22:35:51.082Z,68.57
2023-02-22T22:36:51.123Z,67.31
2023-02-22T22:37:51.353Z,68.33
2023-02-22T22:38:51.214Z,66.72
2023-02-22T22:39:51.264Z,66.54
2023-02-22T22:40:51.299Z,64.99
2023-02-22T22:41:51.351Z,67.22
2023-02-22T22:42:51.392Z,66.72
2023-02-22T22:43:51.434Z,66.89
2023-02-22T22:44:51.481Z,67.42
2023-02-22T22:45:51.525Z,64.82
2023-02-22T22:46:51.549Z,66.17
2023-02-22T22:47:51.607Z,66.66
2023-02-22T23:13:53.261Z,55.79
2023-02-22T23:23:53.131Z,55.48
2023-02-22T23:24:53.164Z,55.97
2023-02-22T23:25:53.230Z,56.35
2023-02-22T23:26:53.274Z,53.56
2023-02-22T23:27:53.404Z,54.51
2023-02-22T23:28:53.381Z,54.82
2023-02-22T23:29:53.431Z,53.51
2023-02-22T23:30:53.519Z,54.88
2023-02-22T23:31:54.448Z,52.25
2023-02-22T23:32:53.542Z,52.53
2023-02-22T23:33:53.590Z,54.21
2023-02-22T23:34:53.640Z,51.42
2023-02-22T23:35:53.710Z,54.35
2023-02-22T23:36:53.814Z,52.29
2023-02-22T23:37:53.826Z,53.13
2023-02-22T23:38:53.836Z,52.14
2023-02-22T23:39:53.895Z,52.50
2023-02-22T23:40:54.006Z,51.16
2023-02-22T23:41:53.990Z,50.77
2023-02-22T23:42:54.183Z,50.76
2023-02-22T23:43:54.773Z,50.67
2023-02-22T23:44:54.169Z,47.27
2023-02-22T23:45:54.179Z,48.73
2023-02-22T23:46:54.279Z,50.23
2023-02-22T23:47:54.305Z,49.68
2023-02-22T23:48:54.333Z,51.20
2023-02-22T23:49:54.385Z,50.98
2023-02-22T23:50:54.431Z,49.26
2023-02-22T23:51:54.495Z,48.48
2023-02-22T23:52:54.538Z,48.96
2023-02-22T23:53:54.579Z,49.94
2023-02-22T23:54:54.648Z,49.56
2023-02-22T23:55:54.694Z,48.36
2023-02-22T23:56:54.759Z,49.73
2023-02-22T23:57:54.793Z,48.73
2023-02-22T23:58:54.853Z,47.50
2023-02-22T23:59:54.896Z,49.55
